sensor_id;sensor_type;location;lat;lon;timestamp;P1;durP1;ratioP1;P2;durP2;ratioP2
65387;SDS011;51992;53.528;49.474;2023-09-18T00:00:33;17.98;;;9.55;;
65387;SDS011;51992;53.528;49.474;2023-09-18T00:03:00;14.68;;;10.02;;
65387;SDS011;51992;53.528;49.474;2023-09-18T00:05:28;12.82;;;8.75;;
65387;SDS011;51992;53.528;49.474;2023-09-18T00:07:54;13.52;;;9.02;;
65387;SDS011;51992;53.528;49.474;2023-09-18T00:10:19;16.63;;;9.98;;
65387;SDS011;51992;53.528;49.474;2023-09-18T00:12:45;14.20;;;9.90;;
65387;SDS011;51992;53.528;49.474;2023-09-18T00:15:11;17.20;;;10.07;;
65387;SDS011;51992;53.528;49.474;2023-09-18T00:17:36;12.00;;;9.70;;
65387;SDS011;51992;53.528;49.474;2023-09-18T00:20:02;14.02;;;10.35;;
65387;SDS011;51992;53.528;49.474;2023-09-18T00:22:31;17.65;;;10.63;;
65387;SDS011;51992;53.528;49.474;2023-09-18T00:24:57;20.15;;;10.75;;
65387;SDS011;51992;53.528;49.474;2023-09-18T00:27:23;21.27;;;10.93;;
65387;SDS011;51992;53.528;49.474;2023-09-18T00:29:48;17.60;;;10.18;;
65387;SDS011;51992;53.528;49.474;2023-09-18T00:32:14;17.00;;;10.07;;
65387;SDS011;51992;53.528;49.474;2023-09-18T00:34:40;19.00;;;10.65;;
65387;SDS011;51992;53.528;49.474;2023-09-18T00:37:05;22.85;;;11.45;;
65387;SDS011;51992;53.528;49.474;2023-09-18T00:39:31;18.73;;;11.18;;
65387;SDS011;51992;53.528;49.474;2023-09-18T00:41:57;20.05;;;11.23;;
65387;SDS011;51992;53.528;49.474;2023-09-18T00:44:23;19.70;;;10.88;;
65387;SDS011;51992;53.528;49.474;2023-09-18T00:46:49;19.02;;;10.07;;
65387;SDS011;51992;53.528;49.474;2023-09-18T00:49:16;16.35;;;10.43;;
65387;SDS011;51992;53.528;49.474;2023-09-18T00:51:43;21.45;;;10.60;;
65387;SDS011;51992;53.528;49.474;2023-09-18T00:54:09;23.73;;;10.88;;
65387;SDS011;51992;53.528;49.474;2023-09-18T00:56:35;21.23;;;11.15;;
65387;SDS011;51992;53.528;49.474;2023-09-18T00:59:01;21.38;;;11.20;;
65387;SDS011;51992;53.528;49.474;2023-09-18T01:01:28;21.80;;;12.13;;
65387;SDS011;51992;53.528;49.474;2023-09-18T01:03:56;25.10;;;12.32;;
65387;SDS011;51992;53.528;49.474;2023-09-18T01:06:24;29.65;;;12.90;;
65387;SDS011;51992;53.528;49.474;2023-09-18T01:08:53;27.23;;;12.43;;
65387;SDS011;51992;53.528;49.474;2023-09-18T01:11:30;25.80;;;13.00;;
65387;SDS011;51992;53.528;49.474;2023-09-18T01:19:37;29.00;;;14.63;;
65387;SDS011;51992;53.528;49.474;2023-09-18T01:22:04;33.33;;;14.23;;
65387;SDS011;51992;53.528;49.474;2023-09-18T01:24:31;23.92;;;13.23;;
65387;SDS011;51992;53.528;49.474;2023-09-18T01:26:57;30.58;;;14.20;;
65387;SDS011;51992;53.528;49.474;2023-09-18T01:29:23;29.42;;;14.10;;
65387;SDS011;51992;53.528;49.474;2023-09-18T01:31:49;23.98;;;13.68;;
65387;SDS011;51992;53.528;49.474;2023-09-18T01:34:21;24.50;;;12.40;;
65387;SDS011;51992;53.528;49.474;2023-09-18T01:36:48;36.85;;;16.42;;
65387;SDS011;51992;53.528;49.474;2023-09-18T01:39:15;40.00;;;18.65;;
65387;SDS011;51992;53.528;49.474;2023-09-18T01:41:42;33.35;;;18.35;;
65387;SDS011;51992;53.528;49.474;2023-09-18T01:44:08;38.53;;;19.00;;
65387;SDS011;51992;53.528;49.474;2023-09-18T01:46:33;37.58;;;17.77;;
65387;SDS011;51992;53.528;49.474;2023-09-18T01:49:03;28.38;;;14.00;;
65387;SDS011;51992;53.528;49.474;2023-09-18T01:51:29;23.75;;;12.93;;
65387;SDS011;51992;53.528;49.474;2023-09-18T01:53:55;17.15;;;10.30;;
65387;SDS011;51992;53.528;49.474;2023-09-18T01:56:21;19.25;;;10.75;;
65387;SDS011;51992;53.528;49.474;2023-09-18T01:58:47;14.52;;;9.65;;
65387;SDS011;51992;53.528;49.474;2023-09-18T02:01:12;14.57;;;9.38;;
65387;SDS011;51992;53.528;49.474;2023-09-18T02:03:38;18.42;;;9.40;;
65387;SDS011;51992;53.528;49.474;2023-09-18T02:06:10;19.98;;;9.50;;
65387;SDS011;51992;53.528;49.474;2023-09-18T02:08:35;18.70;;;9.57;;
65387;SDS011;51992;53.528;49.474;2023-09-18T02:11:01;20.02;;;10.00;;
65387;SDS011;51992;53.528;49.474;2023-09-18T02:13:28;16.90;;;8.77;;
65387;SDS011;51992;53.528;49.474;2023-09-18T02:15:54;21.15;;;9.07;;
65387;SDS011;51992;53.528;49.474;2023-09-18T02:18:20;14.30;;;9.77;;
65387;SDS011;51992;53.528;49.474;2023-09-18T02:20:46;16.60;;;9.93;;
65387;SDS011;51992;53.528;49.474;2023-09-18T02:23:17;12.48;;;9.77;;
65387;SDS011;51992;53.528;49.474;2023-09-18T02:25:44;16.42;;;9.93;;
65387;SDS011;51992;53.528;49.474;2023-09-18T02:28:09;23.30;;;11.60;;
65387;SDS011;51992;53.528;49.474;2023-09-18T02:30:35;42.50;;;14.88;;
65387;SDS011;51992;53.528;49.474;2023-09-18T02:33:01;37.85;;;13.52;;
65387;SDS011;51992;53.528;49.474;2023-09-18T02:35:30;31.08;;;13.60;;
65387;SDS011;51992;53.528;49.474;2023-09-18T02:37:56;36.67;;;13.70;;
65387;SDS011;51992;53.528;49.474;2023-09-18T02:40:21;35.95;;;13.43;;
65387;SDS011;51992;53.528;49.474;2023-09-18T02:42:47;33.75;;;13.80;;
65387;SDS011;51992;53.528;49.474;2023-09-18T02:45:13;44.83;;;13.75;;
65387;SDS011;51992;53.528;49.474;2023-09-18T02:47:38;26.27;;;12.45;;
65387;SDS011;51992;53.528;49.474;2023-09-18T02:50:06;23.65;;;12.48;;
65387;SDS011;51992;53.528;49.474;2023-09-18T02:52:32;27.30;;;12.70;;
65387;SDS011;51992;53.528;49.474;2023-09-18T02:54:58;34.30;;;14.25;;
65387;SDS011;51992;53.528;49.474;2023-09-18T02:57:23;31.38;;;12.85;;
65387;SDS011;51992;53.528;49.474;2023-09-18T02:59:49;39.00;;;13.00;;
65387;SDS011;51992;53.528;49.474;2023-09-18T03:02:15;28.05;;;12.43;;
65387;SDS011;51992;53.528;49.474;2023-09-18T03:04:40;31.98;;;13.45;;
65387;SDS011;51992;53.528;49.474;2023-09-18T03:07:06;30.58;;;13.25;;
65387;SDS011;51992;53.528;49.474;2023-09-18T03:09:32;30.67;;;12.38;;
65387;SDS011;51992;53.528;49.474;2023-09-18T03:11:57;23.25;;;11.77;;
65387;SDS011;51992;53.528;49.474;2023-09-18T03:14:23;24.83;;;12.30;;
65387;SDS011;51992;53.528;49.474;2023-09-18T03:16:49;31.70;;;12.40;;
65387;SDS011;51992;53.528;49.474;2023-09-18T03:19:15;36.25;;;12.75;;
65387;SDS011;51992;53.528;49.474;2023-09-18T03:21:41;48.42;;;14.52;;
65387;SDS011;51992;53.528;49.474;2023-09-18T03:24:07;33.38;;;12.57;;
65387;SDS011;51992;53.528;49.474;2023-09-18T03:26:32;35.15;;;11.73;;
65387;SDS011;51992;53.528;49.474;2023-09-18T03:28:58;52.03;;;11.95;;
65387;SDS011;51992;53.528;49.474;2023-09-18T03:31:24;29.27;;;10.60;;
65387;SDS011;51992;53.528;49.474;2023-09-18T03:33:49;48.28;;;12.27;;
65387;SDS011;51992;53.528;49.474;2023-09-18T03:36:15;24.83;;;9.63;;
65387;SDS011;51992;53.528;49.474;2023-09-18T03:38:41;24.55;;;8.23;;
65387;SDS011;51992;53.528;49.474;2023-09-18T03:41:07;23.42;;;9.05;;
65387;SDS011;51992;53.528;49.474;2023-09-18T03:43:33;26.35;;;8.93;;
65387;SDS011;51992;53.528;49.474;2023-09-18T03:46:05;22.83;;;9.48;;
65387;SDS011;51992;53.528;49.474;2023-09-18T03:48:31;20.63;;;9.57;;
65387;SDS011;51992;53.528;49.474;2023-09-18T03:51:02;23.40;;;10.43;;
65387;SDS011;51992;53.528;49.474;2023-09-18T03:53:28;16.85;;;8.48;;
65387;SDS011;51992;53.528;49.474;2023-09-18T03:55:53;20.55;;;9.43;;
65387;SDS011;51992;53.528;49.474;2023-09-18T03:58:19;22.30;;;10.13;;
65387;SDS011;51992;53.528;49.474;2023-09-18T04:00:45;31.05;;;10.02;;
65387;SDS011;51992;53.528;49.474;2023-09-18T04:03:11;21.02;;;9.02;;
65387;SDS011;51992;53.528;49.474;2023-09-18T04:05:36;23.88;;;8.77;;
65387;SDS011;51992;53.528;49.474;2023-09-18T04:08:02;19.38;;;8.82;;
65387;SDS011;51992;53.528;49.474;2023-09-18T04:10:28;22.27;;;8.98;;
65387;SDS011;51992;53.528;49.474;2023-09-18T04:12:54;30.00;;;9.93;;
65387;SDS011;51992;53.528;49.474;2023-09-18T04:15:19;45.95;;;12.73;;
65387;SDS011;51992;53.528;49.474;2023-09-18T04:17:45;48.95;;;12.07;;
65387;SDS011;51992;53.528;49.474;2023-09-18T04:20:11;29.67;;;10.05;;
65387;SDS011;51992;53.528;49.474;2023-09-18T04:22:41;24.75;;;10.40;;
65387;SDS011;51992;53.528;49.474;2023-09-18T04:25:07;25.35;;;9.27;;
65387;SDS011;51992;53.528;49.474;2023-09-18T04:27:33;23.05;;;9.20;;
65387;SDS011;51992;53.528;49.474;2023-09-18T04:29:58;36.97;;;10.60;;
65387;SDS011;51992;53.528;49.474;2023-09-18T04:32:27;30.65;;;11.80;;
65387;SDS011;51992;53.528;49.474;2023-09-18T04:34:52;27.75;;;11.95;;
65387;SDS011;51992;53.528;49.474;2023-09-18T04:37:18;32.30;;;12.45;;
65387;SDS011;51992;53.528;49.474;2023-09-18T04:39:44;24.10;;;11.13;;
65387;SDS011;51992;53.528;49.474;2023-09-18T04:42:10;25.92;;;11.27;;
65387;SDS011;51992;53.528;49.474;2023-09-18T04:44:36;29.90;;;13.32;;
65387;SDS011;51992;53.528;49.474;2023-09-18T04:47:01;31.42;;;12.88;;
65387;SDS011;51992;53.528;49.474;2023-09-18T04:49:28;22.80;;;12.10;;
65387;SDS011;51992;53.528;49.474;2023-09-18T04:51:54;27.98;;;11.93;;
65387;SDS011;51992;53.528;49.474;2023-09-18T04:54:20;31.13;;;13.27;;
65387;SDS011;51992;53.528;49.474;2023-09-18T04:56:46;24.08;;;11.45;;
65387;SDS011;51992;53.528;49.474;2023-09-18T04:59:12;27.92;;;13.20;;
65387;SDS011;51992;53.528;49.474;2023-09-18T05:01:37;30.45;;;14.65;;
65387;SDS011;51992;53.528;49.474;2023-09-18T05:04:03;26.95;;;13.27;;
65387;SDS011;51992;53.528;49.474;2023-09-18T05:06:29;36.20;;;15.93;;
65387;SDS011;51992;53.528;49.474;2023-09-18T05:08:54;33.97;;;15.32;;
65387;SDS011;51992;53.528;49.474;2023-09-18T05:11:20;36.35;;;15.48;;
65387;SDS011;51992;53.528;49.474;2023-09-18T05:13:47;34.47;;;13.95;;
65387;SDS011;51992;53.528;49.474;2023-09-18T05:16:13;32.20;;;13.63;;
65387;SDS011;51992;53.528;49.474;2023-09-18T05:18:39;24.05;;;13.65;;
65387;SDS011;51992;53.528;49.474;2023-09-18T05:21:06;41.13;;;14.05;;
65387;SDS011;51992;53.528;49.474;2023-09-18T05:23:32;29.45;;;13.25;;
65387;SDS011;51992;53.528;49.474;2023-09-18T05:25:57;31.15;;;12.90;;
65387;SDS011;51992;53.528;49.474;2023-09-18T05:28:25;29.73;;;14.15;;
65387;SDS011;51992;53.528;49.474;2023-09-18T05:30:50;38.67;;;14.60;;
65387;SDS011;51992;53.528;49.474;2023-09-18T05:33:16;34.83;;;14.75;;
65387;SDS011;51992;53.528;49.474;2023-09-18T05:35:43;30.80;;;12.18;;
65387;SDS011;51992;53.528;49.474;2023-09-18T05:38:09;27.98;;;11.80;;
65387;SDS011;51992;53.528;49.474;2023-09-18T05:40:39;22.17;;;11.77;;
65387;SDS011;51992;53.528;49.474;2023-09-18T05:43:05;27.27;;;11.50;;
65387;SDS011;51992;53.528;49.474;2023-09-18T05:45:31;26.45;;;12.30;;
65387;SDS011;51992;53.528;49.474;2023-09-18T05:47:58;35.58;;;15.07;;
65387;SDS011;51992;53.528;49.474;2023-09-18T05:52:55;56.85;;;22.88;;
65387;SDS011;51992;53.528;49.474;2023-09-18T05:55:25;59.50;;;22.13;;
65387;SDS011;51992;53.528;49.474;2023-09-18T05:57:50;52.40;;;22.63;;
65387;SDS011;51992;53.528;49.474;2023-09-18T06:00:16;51.70;;;19.40;;
65387;SDS011;51992;53.528;49.474;2023-09-18T06:02:48;49.75;;;20.58;;
65387;SDS011;51992;53.528;49.474;2023-09-18T06:05:14;55.80;;;19.58;;
65387;SDS011;51992;53.528;49.474;2023-09-18T06:07:41;88.45;;;22.50;;
65387;SDS011;51992;53.528;49.474;2023-09-18T06:10:07;60.67;;;24.20;;
65387;SDS011;51992;53.528;49.474;2023-09-18T06:12:33;52.83;;;24.35;;
65387;SDS011;51992;53.528;49.474;2023-09-18T06:14:58;50.55;;;23.17;;
65387;SDS011;51992;53.528;49.474;2023-09-18T06:17:24;52.28;;;21.77;;
65387;SDS011;51992;53.528;49.474;2023-09-18T06:19:50;23.65;;;13.73;;
65387;SDS011;51992;53.528;49.474;2023-09-18T06:22:16;20.80;;;9.75;;
65387;SDS011;51992;53.528;49.474;2023-09-18T06:24:42;16.40;;;9.70;;
65387;SDS011;51992;53.528;49.474;2023-09-18T06:27:07;14.23;;;8.25;;
65387;SDS011;51992;53.528;49.474;2023-09-18T06:29:33;19.23;;;9.20;;
65387;SDS011;51992;53.528;49.474;2023-09-18T06:31:59;15.30;;;7.05;;
65387;SDS011;51992;53.528;49.474;2023-09-18T06:34:25;15.23;;;6.72;;
65387;SDS011;51992;53.528;49.474;2023-09-18T06:36:51;18.88;;;7.13;;
65387;SDS011;51992;53.528;49.474;2023-09-18T06:39:17;17.38;;;8.02;;
65387;SDS011;51992;53.528;49.474;2023-09-18T06:41:43;14.57;;;7.70;;
65387;SDS011;51992;53.528;49.474;2023-09-18T06:44:09;10.30;;;5.90;;
65387;SDS011;51992;53.528;49.474;2023-09-18T06:46:35;13.57;;;6.22;;
65387;SDS011;51992;53.528;49.474;2023-09-18T06:49:01;11.85;;;5.10;;
65387;SDS011;51992;53.528;49.474;2023-09-18T06:51:27;13.75;;;5.38;;
65387;SDS011;51992;53.528;49.474;2023-09-18T06:53:55;12.98;;;4.95;;
65387;SDS011;51992;53.528;49.474;2023-09-18T06:56:26;9.63;;;4.55;;
65387;SDS011;51992;53.528;49.474;2023-09-18T06:58:51;13.55;;;5.10;;
65387;SDS011;51992;53.528;49.474;2023-09-18T07:01:21;12.93;;;5.68;;
65387;SDS011;51992;53.528;49.474;2023-09-18T07:03:47;6.90;;;4.53;;
65387;SDS011;51992;53.528;49.474;2023-09-18T07:06:16;14.43;;;6.00;;
65387;SDS011;51992;53.528;49.474;2023-09-18T07:08:44;9.30;;;5.90;;
65387;SDS011;51992;53.528;49.474;2023-09-18T07:11:10;11.55;;;5.40;;
65387;SDS011;51992;53.528;49.474;2023-09-18T07:13:36;5.82;;;4.20;;
65387;SDS011;51992;53.528;49.474;2023-09-18T07:16:02;13.95;;;6.70;;
65387;SDS011;51992;53.528;49.474;2023-09-18T07:18:28;10.80;;;6.95;;
65387;SDS011;51992;53.528;49.474;2023-09-18T07:20:54;16.85;;;8.25;;
65387;SDS011;51992;53.528;49.474;2023-09-18T07:23:20;18.23;;;8.73;;
65387;SDS011;51992;53.528;49.474;2023-09-18T07:25:49;10.68;;;7.43;;
65387;SDS011;51992;53.528;49.474;2023-09-18T07:28:15;14.48;;;7.72;;
65387;SDS011;51992;53.528;49.474;2023-09-18T07:30:43;23.15;;;7.90;;
65387;SDS011;51992;53.528;49.474;2023-09-18T07:33:12;11.40;;;7.22;;
65387;SDS011;51992;53.528;49.474;2023-09-18T07:35:40;14.85;;;7.53;;
65387;SDS011;51992;53.528;49.474;2023-09-18T07:38:06;14.57;;;7.55;;
65387;SDS011;51992;53.528;49.474;2023-09-18T07:40:33;16.85;;;8.57;;
65387;SDS011;51992;53.528;49.474;2023-09-18T07:42:59;16.38;;;8.00;;
65387;SDS011;51992;53.528;49.474;2023-09-18T07:45:25;19.60;;;7.03;;
65387;SDS011;51992;53.528;49.474;2023-09-18T07:47:51;13.30;;;5.93;;
65387;SDS011;51992;53.528;49.474;2023-09-18T07:50:17;27.48;;;7.60;;
65387;SDS011;51992;53.528;49.474;2023-09-18T07:52:43;12.32;;;6.70;;
65387;SDS011;51992;53.528;49.474;2023-09-18T07:55:09;16.70;;;6.22;;
65387;SDS011;51992;53.528;49.474;2023-09-18T07:57:36;9.63;;;5.85;;
65387;SDS011;51992;53.528;49.474;2023-09-18T08:00:03;7.97;;;4.93;;
65387;SDS011;51992;53.528;49.474;2023-09-18T08:02:37;12.02;;;4.95;;
65387;SDS011;51992;53.528;49.474;2023-09-18T08:05:03;13.40;;;5.25;;
65387;SDS011;51992;53.528;49.474;2023-09-18T08:07:30;13.07;;;4.93;;
65387;SDS011;51992;53.528;49.474;2023-09-18T08:09:56;20.52;;;5.97;;
65387;SDS011;51992;53.528;49.474;2023-09-18T08:12:23;5.40;;;4.32;;
65387;SDS011;51992;53.528;49.474;2023-09-18T08:14:49;15.40;;;5.47;;
65387;SDS011;51992;53.528;49.474;2023-09-18T08:17:16;10.60;;;4.93;;
65387;SDS011;51992;53.528;49.474;2023-09-18T08:19:42;24.00;;;5.70;;
65387;SDS011;51992;53.528;49.474;2023-09-18T08:22:09;10.68;;;4.88;;
65387;SDS011;51992;53.528;49.474;2023-09-18T08:24:37;10.00;;;4.95;;
65387;SDS011;51992;53.528;49.474;2023-09-18T08:27:03;9.60;;;5.63;;
65387;SDS011;51992;53.528;49.474;2023-09-18T08:29:30;10.85;;;5.90;;
65387;SDS011;51992;53.528;49.474;2023-09-18T08:32:00;10.88;;;5.60;;
65387;SDS011;51992;53.528;49.474;2023-09-18T08:34:26;18.58;;;5.20;;
65387;SDS011;51992;53.528;49.474;2023-09-18T08:36:52;9.75;;;5.15;;
65387;SDS011;51992;53.528;49.474;2023-09-18T08:39:18;15.10;;;5.43;;
65387;SDS011;51992;53.528;49.474;2023-09-18T08:41:44;13.23;;;5.38;;
65387;SDS011;51992;53.528;49.474;2023-09-18T08:44:12;8.65;;;4.80;;
65387;SDS011;51992;53.528;49.474;2023-09-18T08:46:39;6.95;;;4.57;;
65387;SDS011;51992;53.528;49.474;2023-09-18T08:49:05;13.40;;;5.68;;
65387;SDS011;51992;53.528;49.474;2023-09-18T08:51:32;20.73;;;6.32;;
65387;SDS011;51992;53.528;49.474;2023-09-18T08:53:59;14.15;;;4.57;;
65387;SDS011;51992;53.528;49.474;2023-09-18T08:56:24;9.38;;;4.80;;
65387;SDS011;51992;53.528;49.474;2023-09-18T08:58:50;9.95;;;5.05;;
65387;SDS011;51992;53.528;49.474;2023-09-18T09:01:18;10.60;;;4.40;;
65387;SDS011;51992;53.528;49.474;2023-09-18T09:03:44;5.85;;;4.32;;
65387;SDS011;51992;53.528;49.474;2023-09-18T09:06:11;13.95;;;4.50;;
65387;SDS011;51992;53.528;49.474;2023-09-18T09:08:37;10.20;;;4.97;;
65387;SDS011;51992;53.528;49.474;2023-09-18T09:11:03;18.05;;;5.90;;
65387;SDS011;51992;53.528;49.474;2023-09-18T09:13:28;10.93;;;4.93;;
65387;SDS011;51992;53.528;49.474;2023-09-18T09:15:55;8.68;;;3.97;;
65387;SDS011;51992;53.528;49.474;2023-09-18T09:18:23;8.27;;;4.45;;
65387;SDS011;51992;53.528;49.474;2023-09-18T09:20:52;10.05;;;4.35;;
65387;SDS011;51992;53.528;49.474;2023-09-18T09:23:19;8.65;;;4.10;;
65387;SDS011;51992;53.528;49.474;2023-09-18T09:25:45;4.65;;;3.97;;
65387;SDS011;51992;53.528;49.474;2023-09-18T09:28:10;11.45;;;4.63;;
65387;SDS011;51992;53.528;49.474;2023-09-18T09:30:37;6.45;;;4.30;;
65387;SDS011;51992;53.528;49.474;2023-09-18T09:33:03;5.82;;;3.85;;
65387;SDS011;51992;53.528;49.474;2023-09-18T09:35:30;6.10;;;4.20;;
65387;SDS011;51992;53.528;49.474;2023-09-18T09:37:57;5.13;;;4.05;;
65387;SDS011;51992;53.528;49.474;2023-09-18T09:40:24;6.93;;;4.20;;
65387;SDS011;51992;53.528;49.474;2023-09-18T09:42:50;9.70;;;5.30;;
65387;SDS011;51992;53.528;49.474;2023-09-18T09:45:17;15.15;;;4.63;;
65387;SDS011;51992;53.528;49.474;2023-09-18T09:47:43;15.38;;;5.20;;
65387;SDS011;51992;53.528;49.474;2023-09-18T09:52:35;8.80;;;4.10;;
65387;SDS011;51992;53.528;49.474;2023-09-18T09:55:02;7.32;;;4.03;;
65387;SDS011;51992;53.528;49.474;2023-09-18T09:57:30;9.48;;;4.40;;
65387;SDS011;51992;53.528;49.474;2023-09-18T10:00:03;4.95;;;4.40;;
65387;SDS011;51992;53.528;49.474;2023-09-18T10:02:49;8.13;;;4.40;;
65387;SDS011;51992;53.528;49.474;2023-09-18T10:05:15;7.63;;;3.90;;
65387;SDS011;51992;53.528;49.474;2023-09-18T10:07:42;9.95;;;4.57;;
65387;SDS011;51992;53.528;49.474;2023-09-18T10:10:08;8.18;;;4.55;;
65387;SDS011;51992;53.528;49.474;2023-09-18T10:12:34;19.77;;;4.82;;
65387;SDS011;51992;53.528;49.474;2023-09-18T10:15:01;12.18;;;4.60;;
65387;SDS011;51992;53.528;49.474;2023-09-18T10:17:28;8.60;;;4.05;;
65387;SDS011;51992;53.528;49.474;2023-09-18T10:20:07;13.82;;;5.43;;
65387;SDS011;51992;53.528;49.474;2023-09-18T10:22:37;13.40;;;5.57;;
65387;SDS011;51992;53.528;49.474;2023-09-18T10:25:24;6.90;;;4.22;;
65387;SDS011;51992;53.528;49.474;2023-09-18T10:27:50;6.00;;;4.20;;
65387;SDS011;51992;53.528;49.474;2023-09-18T10:30:20;24.02;;;4.85;;
65387;SDS011;51992;53.528;49.474;2023-09-18T10:32:48;7.55;;;4.07;;
65387;SDS011;51992;53.528;49.474;2023-09-18T10:35:15;9.60;;;4.75;;
65387;SDS011;51992;53.528;49.474;2023-09-18T10:37:45;8.10;;;4.25;;
65387;SDS011;51992;53.528;49.474;2023-09-18T10:40:11;8.73;;;4.75;;
65387;SDS011;51992;53.528;49.474;2023-09-18T10:42:37;7.93;;;4.78;;
65387;SDS011;51992;53.528;49.474;2023-09-18T10:45:04;5.88;;;4.10;;
65387;SDS011;51992;53.528;49.474;2023-09-18T10:47:32;7.40;;;4.18;;
65387;SDS011;51992;53.528;49.474;2023-09-18T10:49:58;8.65;;;4.45;;
65387;SDS011;51992;53.528;49.474;2023-09-18T10:52:24;13.63;;;5.20;;
65387;SDS011;51992;53.528;49.474;2023-09-18T10:54:50;5.00;;;3.78;;
65387;SDS011;51992;53.528;49.474;2023-09-18T10:57:16;4.50;;;3.78;;
65387;SDS011;51992;53.528;49.474;2023-09-18T10:59:45;8.27;;;4.30;;
65387;SDS011;51992;53.528;49.474;2023-09-18T11:02:13;4.88;;;4.32;;
65387;SDS011;51992;53.528;49.474;2023-09-18T11:04:40;12.40;;;4.57;;
65387;SDS011;51992;53.528;49.474;2023-09-18T11:07:06;7.22;;;4.07;;
65387;SDS011;51992;53.528;49.474;2023-09-18T11:09:40;8.10;;;4.40;;
65387;SDS011;51992;53.528;49.474;2023-09-18T11:12:06;11.35;;;5.00;;
65387;SDS011;51992;53.528;49.474;2023-09-18T11:17:23;11.90;;;4.80;;
65387;SDS011;51992;53.528;49.474;2023-09-18T11:20:01;23.67;;;6.10;;
65387;SDS011;51992;53.528;49.474;2023-09-18T11:22:27;17.52;;;5.05;;
65387;SDS011;51992;53.528;49.474;2023-09-18T11:24:53;15.23;;;4.90;;
65387;SDS011;51992;53.528;49.474;2023-09-18T11:27:23;8.25;;;4.82;;
65387;SDS011;51992;53.528;49.474;2023-09-18T11:29:51;8.35;;;4.70;;
65387;SDS011;51992;53.528;49.474;2023-09-18T11:32:36;8.38;;;4.93;;
65387;SDS011;51992;53.528;49.474;2023-09-18T11:35:06;14.13;;;5.55;;
65387;SDS011;51992;53.528;49.474;2023-09-18T11:37:32;12.45;;;4.90;;
65387;SDS011;51992;53.528;49.474;2023-09-18T11:39:57;7.03;;;4.22;;
65387;SDS011;51992;53.528;49.474;2023-09-18T11:42:25;6.65;;;4.30;;
65387;SDS011;51992;53.528;49.474;2023-09-18T11:44:52;16.13;;;4.95;;
65387;SDS011;51992;53.528;49.474;2023-09-18T11:47:18;10.38;;;4.20;;
65387;SDS011;51992;53.528;49.474;2023-09-18T11:49:57;8.15;;;4.32;;
65387;SDS011;51992;53.528;49.474;2023-09-18T11:52:28;9.07;;;4.45;;
65387;SDS011;51992;53.528;49.474;2023-09-18T11:54:56;9.88;;;4.53;;
65387;SDS011;51992;53.528;49.474;2023-09-18T11:57:21;12.95;;;5.07;;
65387;SDS011;51992;53.528;49.474;2023-09-18T11:59:47;9.40;;;4.75;;
65387;SDS011;51992;53.528;49.474;2023-09-18T12:02:34;10.73;;;4.55;;
65387;SDS011;51992;53.528;49.474;2023-09-18T12:05:05;23.35;;;5.47;;
65387;SDS011;51992;53.528;49.474;2023-09-18T12:07:31;13.00;;;4.90;;
65387;SDS011;51992;53.528;49.474;2023-09-18T12:09:57;6.47;;;4.03;;
65387;SDS011;51992;53.528;49.474;2023-09-18T12:12:23;7.60;;;4.15;;
65387;SDS011;51992;53.528;49.474;2023-09-18T12:14:51;10.52;;;4.18;;
65387;SDS011;51992;53.528;49.474;2023-09-18T12:17:17;8.82;;;3.63;;
65387;SDS011;51992;53.528;49.474;2023-09-18T12:19:50;9.32;;;4.78;;
65387;SDS011;51992;53.528;49.474;2023-09-18T12:22:22;11.13;;;5.57;;
65387;SDS011;51992;53.528;49.474;2023-09-18T12:24:48;16.23;;;5.22;;
65387;SDS011;51992;53.528;49.474;2023-09-18T12:27:14;17.67;;;5.90;;
65387;SDS011;51992;53.528;49.474;2023-09-18T12:29:40;12.00;;;5.18;;
65387;SDS011;51992;53.528;49.474;2023-09-18T12:32:08;11.57;;;6.30;;
65387;SDS011;51992;53.528;49.474;2023-09-18T12:34:34;12.35;;;6.20;;
65387;SDS011;51992;53.528;49.474;2023-09-18T12:37:00;11.98;;;6.93;;
65387;SDS011;51992;53.528;49.474;2023-09-18T12:39:31;24.17;;;7.25;;
65387;SDS011;51992;53.528;49.474;2023-09-18T12:41:57;18.02;;;5.55;;
65387;SDS011;51992;53.528;49.474;2023-09-18T12:44:23;15.65;;;4.97;;
65387;SDS011;51992;53.528;49.474;2023-09-18T12:46:48;9.07;;;4.90;;
65387;SDS011;51992;53.528;49.474;2023-09-18T12:49:21;6.97;;;4.90;;
65387;SDS011;51992;53.528;49.474;2023-09-18T12:52:00;10.90;;;4.93;;
65387;SDS011;51992;53.528;49.474;2023-09-18T12:54:36;7.38;;;4.68;;
65387;SDS011;51992;53.528;49.474;2023-09-18T12:57:03;8.07;;;5.43;;
65387;SDS011;51992;53.528;49.474;2023-09-18T12:59:33;18.80;;;6.00;;
65387;SDS011;51992;53.528;49.474;2023-09-18T13:04:26;14.45;;;5.50;;
65387;SDS011;51992;53.528;49.474;2023-09-18T13:07:09;13.35;;;5.00;;
65387;SDS011;51992;53.528;49.474;2023-09-18T13:09:35;8.43;;;5.10;;
65387;SDS011;51992;53.528;49.474;2023-09-18T13:12:02;6.32;;;4.40;;
65387;SDS011;51992;53.528;49.474;2023-09-18T13:14:29;24.30;;;5.63;;
65387;SDS011;51992;53.528;49.474;2023-09-18T13:17:01;9.43;;;4.97;;
65387;SDS011;51992;53.528;49.474;2023-09-18T13:19:29;13.57;;;5.32;;
65387;SDS011;51992;53.528;49.474;2023-09-18T13:21:55;7.80;;;5.25;;
65387;SDS011;51992;53.528;49.474;2023-09-18T13:24:27;10.10;;;5.18;;
65387;SDS011;51992;53.528;49.474;2023-09-18T13:26:53;9.57;;;4.88;;
65387;SDS011;51992;53.528;49.474;2023-09-18T13:29:20;6.85;;;4.53;;
65387;SDS011;51992;53.528;49.474;2023-09-18T13:31:45;8.10;;;4.80;;
65387;SDS011;51992;53.528;49.474;2023-09-18T13:34:11;5.55;;;4.10;;
65387;SDS011;51992;53.528;49.474;2023-09-18T13:36:37;9.75;;;4.72;;
65387;SDS011;51992;53.528;49.474;2023-09-18T13:39:03;6.82;;;4.13;;
65387;SDS011;51992;53.528;49.474;2023-09-18T13:41:29;12.07;;;4.43;;
65387;SDS011;51992;53.528;49.474;2023-09-18T13:43:56;7.60;;;4.25;;
65387;SDS011;51992;53.528;49.474;2023-09-18T13:46:22;8.88;;;4.10;;
65387;SDS011;51992;53.528;49.474;2023-09-18T13:48:49;10.90;;;4.57;;
65387;SDS011;51992;53.528;49.474;2023-09-18T13:51:14;10.20;;;4.57;;
65387;SDS011;51992;53.528;49.474;2023-09-18T13:53:40;14.90;;;5.03;;
65387;SDS011;51992;53.528;49.474;2023-09-18T13:56:06;7.30;;;4.28;;
65387;SDS011;51992;53.528;49.474;2023-09-18T13:58:32;9.00;;;4.03;;
65387;SDS011;51992;53.528;49.474;2023-09-18T14:00:59;9.65;;;4.85;;
65387;SDS011;51992;53.528;49.474;2023-09-18T14:03:24;10.07;;;4.28;;
65387;SDS011;51992;53.528;49.474;2023-09-18T14:05:50;11.23;;;4.72;;
65387;SDS011;51992;53.528;49.474;2023-09-18T14:08:16;11.95;;;5.20;;
65387;SDS011;51992;53.528;49.474;2023-09-18T14:10:43;21.15;;;5.80;;
65387;SDS011;51992;53.528;49.474;2023-09-18T14:13:09;22.23;;;5.30;;
65387;SDS011;51992;53.528;49.474;2023-09-18T14:15:35;22.27;;;5.60;;
65387;SDS011;51992;53.528;49.474;2023-09-18T14:18:00;17.40;;;6.10;;
65387;SDS011;51992;53.528;49.474;2023-09-18T14:20:26;16.63;;;5.50;;
65387;SDS011;51992;53.528;49.474;2023-09-18T14:22:52;24.15;;;5.72;;
65387;SDS011;51992;53.528;49.474;2023-09-18T14:25:18;19.92;;;5.65;;
65387;SDS011;51992;53.528;49.474;2023-09-18T14:27:45;18.08;;;6.00;;
65387;SDS011;51992;53.528;49.474;2023-09-18T14:30:11;13.98;;;7.20;;
65387;SDS011;51992;53.528;49.474;2023-09-18T14:32:39;21.48;;;10.75;;
65387;SDS011;51992;53.528;49.474;2023-09-18T14:35:05;15.00;;;8.43;;